Airfield :
LOGIN :

Register | Disclaimer

   EN    FR    IT 

 










Legend :    VFR   Marginal VFR   IFR   Intensive IFR   Very Intensive IFR
Visi :
Ceiling :
>= 8 km
>= 3000ft
5 to 8 km
1000 to 3000 ft
1500m to 5 km
500 to 1000 ft
800 to 1500m
200 to 500 ft
< 800m
< 200 ft
Symbols :   Thunderstorms  Fog  Heavy snow  Heavy precipitations  Wind > 20 kt
SIGMETs :     Misc.  Thunderstorms  Icing  Turbulence  Mountain Waves  Volcanic Ashes






- Airport Elevation : 20 ft


EBFN - Koksijde

CURRENT METAR :
  • 310255Z AUTO 19007KT 9999 BKN034/// 13/11 Q1020 BLU

EXPIRED METARs :
  • 310225Z AUTO 18008KT 9999 NCD 12/10 Q1020 BLU
  • 310155Z AUTO 19008KT 9999 FEW047/// 12/11 Q1021 BLU
  • 310125Z AUTO 19008KT 9999 NCD 12/11 Q1021 BLU
  • 310055Z AUTO 19008KT 9999 NCD 12/11 Q1021 BLU
  • 310025Z AUTO 20008KT 9999 SCT070/// 13/12 Q1021 BLU

TAF TAF EBFN
Valid from the 30 at 19:00 until the 31 at 07:00 UTC


301541Z 3019/3107 19010KT 9999 SCT020 BKN035
TEMPO 3019/3107 21015KT FEW025 SCT040
PROB30
TEMPO 3102/3107 18008KT 3000 BR SCT005



MET'MAP, your aeronautical weather chart ! - Copyright ORBIFLY December 2007 - Disclaimer

ORBIFLY MET'MAP TEAM :

Programming & Development : Alexandra Zaïnal
Concept & original design : Baudouin d'Aumeries
Assistance for programming : Marc-Olivier Méhu
Technical & hardware support : Manuel Goepfert

Contact : metmap@orbifly.com




SOURCES & CREDITS :

   NOAA